sensor_id;sensor_type;location;lat;lon;timestamp;temperature;humidity
19152;DHT22;9708;53.114;9.388;2022-12-20T03:42:09;7.80;99.90
19152;DHT22;9708;53.114;9.388;2022-12-20T03:44:36;7.80;99.90
19152;DHT22;9708;53.114;9.388;2022-12-20T03:47:03;7.80;99.90
19152;DHT22;9708;53.114;9.388;2022-12-20T03:49:30;7.80;99.90
19152;DHT22;9708;53.114;9.388;2022-12-20T03:51:57;7.80;99.90
19152;DHT22;9708;53.114;9.388;2022-12-20T03:54:24;7.80;99.90
19152;DHT22;9708;53.114;9.388;2022-12-20T03:56:50;7.80;99.90
19152;DHT22;9708;53.114;9.388;2022-12-20T03:59:19;7.80;99.90
19152;DHT22;9708;53.114;9.388;2022-12-20T04:01:46;7.70;99.90
19152;DHT22;9708;53.114;9.388;2022-12-20T04:04:14;7.70;99.90
19152;DHT22;9708;53.114;9.388;2022-12-20T04:06:41;7.80;99.90
19152;DHT22;9708;53.114;9.388;2022-12-20T04:09:08;7.80;99.90
19152;DHT22;9708;53.114;9.388;2022-12-20T04:11:34;7.90;99.90
19152;DHT22;9708;53.114;9.388;2022-12-20T04:14:01;7.90;99.90
19152;DHT22;9708;53.114;9.388;2022-12-20T04:16:30;7.90;99.90
19152;DHT22;9708;53.114;9.388;2022-12-20T04:18:57;7.90;99.90
19152;DHT22;9708;53.114;9.388;2022-12-20T04:21:26;7.90;99.90
19152;DHT22;9708;53.114;9.388;2022-12-20T04:23:53;7.90;99.90
19152;DHT22;9708;53.114;9.388;2022-12-20T04:26:20;7.90;99.90
19152;DHT22;9708;53.114;9.388;2022-12-20T04:28:47;7.90;99.90
19152;DHT22;9708;53.114;9.388;2022-12-20T04:31:14;7.90;99.90
19152;DHT22;9708;53.114;9.388;2022-12-20T04:33:42;8.00;99.90
19152;DHT22;9708;53.114;9.388;2022-12-20T04:36:09;8.00;99.90
19152;DHT22;9708;53.114;9.388;2022-12-20T04:38:36;7.90;99.90
19152;DHT22;9708;53.114;9.388;2022-12-20T04:41:03;8.00;99.90
19152;DHT22;9708;53.114;9.388;2022-12-20T04:43:29;8.00;99.90
19152;DHT22;9708;53.114;9.388;2022-12-20T04:45:56;8.00;99.90
19152;DHT22;9708;53.114;9.388;2022-12-20T04:48:25;8.00;99.90
19152;DHT22;9708;53.114;9.388;2022-12-20T04:50:54;8.00;99.90
19152;DHT22;9708;53.114;9.388;2022-12-20T04:53:22;8.10;99.90
19152;DHT22;9708;53.114;9.388;2022-12-20T04:56:06;8.10;99.90
19152;DHT22;9708;53.114;9.388;2022-12-20T04:58:33;8.00;99.90
19152;DHT22;9708;53.114;9.388;2022-12-20T05:01:00;8.00;99.90
19152;DHT22;9708;53.114;9.388;2022-12-20T05:03:27;8.00;99.90
19152;DHT22;9708;53.114;9.388;2022-12-20T05:05:55;8.00;99.90
19152;DHT22;9708;53.114;9.388;2022-12-20T05:08:22;8.00;99.90
19152;DHT22;9708;53.114;9.388;2022-12-20T05:10:49;8.00;99.90
19152;DHT22;9708;53.114;9.388;2022-12-20T05:13:16;8.10;99.90
19152;DHT22;9708;53.114;9.388;2022-12-20T05:15:43;7.90;99.90
19152;DHT22;9708;53.114;9.388;2022-12-20T05:18:09;8.00;99.90
19152;DHT22;9708;53.114;9.388;2022-12-20T05:20:36;8.00;99.90
19152;DHT22;9708;53.114;9.388;2022-12-20T05:23:04;7.90;99.90
19152;DHT22;9708;53.114;9.388;2022-12-20T05:25:49;8.00;99.90
19152;DHT22;9708;53.114;9.388;2022-12-20T05:28:34;8.00;99.90
19152;DHT22;9708;53.114;9.388;2022-12-20T05:31:02;8.00;99.90
19152;DHT22;9708;53.114;9.388;2022-12-20T05:33:28;8.00;99.90
19152;DHT22;9708;53.114;9.388;2022-12-20T05:35:55;8.00;99.90
19152;DHT22;9708;53.114;9.388;2022-12-20T05:38:23;8.00;99.90
19152;DHT22;9708;53.114;9.388;2022-12-20T05:40:50;8.10;99.90
19152;DHT22;9708;53.114;9.388;2022-12-20T05:43:18;8.10;99.90
19152;DHT22;9708;53.114;9.388;2022-12-20T05:45:46;8.10;99.90
19152;DHT22;9708;53.114;9.388;2022-12-20T05:48:13;8.00;99.90
19152;DHT22;9708;53.114;9.388;2022-12-20T05:50:40;8.00;99.90
19152;DHT22;9708;53.114;9.388;2022-12-20T05:53:08;8.00;99.90
19152;DHT22;9708;53.114;9.388;2022-12-20T05:55:36;8.00;99.90
19152;DHT22;9708;53.114;9.388;2022-12-20T05:58:05;8.00;99.90
19152;DHT22;9708;53.114;9.388;2022-12-20T06:00:32;8.00;99.90
19152;DHT22;9708;53.114;9.388;2022-12-20T06:02:59;8.10;99.90
19152;DHT22;9708;53.114;9.388;2022-12-20T06:05:25;8.10;99.90
19152;DHT22;9708;53.114;9.388;2022-12-20T06:07:52;8.10;99.90
19152;DHT22;9708;53.114;9.388;2022-12-20T06:10:19;8.00;99.90
19152;DHT22;9708;53.114;9.388;2022-12-20T06:12:47;8.10;99.90
19152;DHT22;9708;53.114;9.388;2022-12-20T06:15:14;8.10;99.90
19152;DHT22;9708;53.114;9.388;2022-12-20T06:17:41;8.10;99.90
19152;DHT22;9708;53.114;9.388;2022-12-20T06:20:08;8.10;99.90
19152;DHT22;9708;53.114;9.388;2022-12-20T06:22:36;8.10;99.90
19152;DHT22;9708;53.114;9.388;2022-12-20T06:25:04;8.10;99.90
19152;DHT22;9708;53.114;9.388;2022-12-20T06:27:31;8.20;99.90
19152;DHT22;9708;53.114;9.388;2022-12-20T06:29:59;8.20;99.90
19152;DHT22;9708;53.114;9.388;2022-12-20T06:32:26;8.20;99.90
19152;DHT22;9708;53.114;9.388;2022-12-20T06:34:53;8.30;99.90
19152;DHT22;9708;53.114;9.388;2022-12-20T06:37:20;8.30;99.90
19152;DHT22;9708;53.114;9.388;2022-12-20T06:39:47;8.30;99.90
19152;DHT22;9708;53.114;9.388;2022-12-20T06:42:13;8.20;99.90
19152;DHT22;9708;53.114;9.388;2022-12-20T06:44:40;8.20;99.90
19152;DHT22;9708;53.114;9.388;2022-12-20T06:47:08;8.20;99.90
19152;DHT22;9708;53.114;9.388;2022-12-20T06:49:35;8.30;99.90
19152;DHT22;9708;53.114;9.388;2022-12-20T06:52:02;8.30;99.90
19152;DHT22;9708;53.114;9.388;2022-12-20T06:54:29;8.30;99.90
19152;DHT22;9708;53.114;9.388;2022-12-20T06:56:56;8.30;99.90
19152;DHT22;9708;53.114;9.388;2022-12-20T06:59:23;8.30;99.90
19152;DHT22;9708;53.114;9.388;2022-12-20T07:01:50;8.40;99.90
19152;DHT22;9708;53.114;9.388;2022-12-20T07:04:18;8.40;99.90
19152;DHT22;9708;53.114;9.388;2022-12-20T07:06:45;8.40;99.90
19152;DHT22;9708;53.114;9.388;2022-12-20T07:09:11;8.40;99.90
19152;DHT22;9708;53.114;9.388;2022-12-20T07:11:39;8.40;99.90
19152;DHT22;9708;53.114;9.388;2022-12-20T07:14:08;8.40;99.90
19152;DHT22;9708;53.114;9.388;2022-12-20T07:16:35;8.40;99.90
19152;DHT22;9708;53.114;9.388;2022-12-20T07:19:02;8.50;99.90
19152;DHT22;9708;53.114;9.388;2022-12-20T07:21:30;8.40;99.90
19152;DHT22;9708;53.114;9.388;2022-12-20T07:23:57;8.50;99.90
19152;DHT22;9708;53.114;9.388;2022-12-20T07:26:24;8.40;99.90
19152;DHT22;9708;53.114;9.388;2022-12-20T07:28:50;8.40;99.90
19152;DHT22;9708;53.114;9.388;2022-12-20T07:31:17;8.30;99.90
19152;DHT22;9708;53.114;9.388;2022-12-20T07:33:44;8.40;99.90
19152;DHT22;9708;53.114;9.388;2022-12-20T07:36:12;8.40;99.90
19152;DHT22;9708;53.114;9.388;2022-12-20T07:38:42;8.30;99.90
19152;DHT22;9708;53.114;9.388;2022-12-20T07:41:10;8.30;99.90
19152;DHT22;9708;53.114;9.388;2022-12-20T07:43:38;8.30;99.90
19152;DHT22;9708;53.114;9.388;2022-12-20T07:46:05;8.30;99.90
19152;DHT22;9708;53.114;9.388;2022-12-20T07:48:33;8.20;99.90
19152;DHT22;9708;53.114;9.388;2022-12-20T07:51:02;8.20;99.90
19152;DHT22;9708;53.114;9.388;2022-12-20T07:53:33;8.20;99.90
19152;DHT22;9708;53.114;9.388;2022-12-20T07:56:02;8.20;99.90
19152;DHT22;9708;53.114;9.388;2022-12-20T07:58:30;8.20;99.90
19152;DHT22;9708;53.114;9.388;2022-12-20T08:00:58;8.20;99.90
19152;DHT22;9708;53.114;9.388;2022-12-20T08:03:29;8.20;99.90
19152;DHT22;9708;53.114;9.388;2022-12-20T08:05:59;8.20;99.90
19152;DHT22;9708;53.114;9.388;2022-12-20T08:08:29;8.20;99.90
19152;DHT22;9708;53.114;9.388;2022-12-20T08:10:57;8.20;99.90
19152;DHT22;9708;53.114;9.388;2022-12-20T08:13:26;8.20;99.90
19152;DHT22;9708;53.114;9.388;2022-12-20T08:15:53;8.20;99.90
19152;DHT22;9708;53.114;9.388;2022-12-20T08:18:20;8.30;99.90
19152;DHT22;9708;53.114;9.388;2022-12-20T08:20:47;8.30;99.90
19152;DHT22;9708;53.114;9.388;2022-12-20T08:23:13;8.30;99.90
19152;DHT22;9708;53.114;9.388;2022-12-20T08:25:40;8.30;99.90
19152;DHT22;9708;53.114;9.388;2022-12-20T08:28:07;8.30;99.90
19152;DHT22;9708;53.114;9.388;2022-12-20T08:30:35;8.40;99.90
19152;DHT22;9708;53.114;9.388;2022-12-20T08:33:02;8.50;99.90
19152;DHT22;9708;53.114;9.388;2022-12-20T08:35:30;8.40;99.90
19152;DHT22;9708;53.114;9.388;2022-12-20T08:37:56;8.50;99.90
19152;DHT22;9708;53.114;9.388;2022-12-20T08:40:23;8.40;99.90
19152;DHT22;9708;53.114;9.388;2022-12-20T08:42:50;8.40;99.90
19152;DHT22;9708;53.114;9.388;2022-12-20T08:45:17;8.50;99.90
19152;DHT22;9708;53.114;9.388;2022-12-20T08:47:45;8.50;99.90
19152;DHT22;9708;53.114;9.388;2022-12-20T08:50:12;8.60;99.90
19152;DHT22;9708;53.114;9.388;2022-12-20T08:52:39;8.60;99.90
19152;DHT22;9708;53.114;9.388;2022-12-20T08:55:06;8.60;99.90
19152;DHT22;9708;53.114;9.388;2022-12-20T08:57:33;8.70;99.90
19152;DHT22;9708;53.114;9.388;2022-12-20T09:00:00;8.70;99.90
19152;DHT22;9708;53.114;9.388;2022-12-20T09:02:27;8.70;99.90
19152;DHT22;9708;53.114;9.388;2022-12-20T09:04:55;8.80;99.90
19152;DHT22;9708;53.114;9.388;2022-12-20T09:07:22;8.80;99.90
19152;DHT22;9708;53.114;9.388;2022-12-20T09:09:48;8.90;99.90
19152;DHT22;9708;53.114;9.388;2022-12-20T09:12:15;8.90;99.90
19152;DHT22;9708;53.114;9.388;2022-12-20T09:14:42;8.90;99.90
19152;DHT22;9708;53.114;9.388;2022-12-20T09:17:09;9.00;99.90
19152;DHT22;9708;53.114;9.388;2022-12-20T09:19:36;9.00;99.90
19152;DHT22;9708;53.114;9.388;2022-12-20T09:22:05;9.20;99.90
19152;DHT22;9708;53.114;9.388;2022-12-20T09:24:31;9.20;99.90
19152;DHT22;9708;53.114;9.388;2022-12-20T09:26:58;9.20;99.90
19152;DHT22;9708;53.114;9.388;2022-12-20T09:29:25;9.30;99.90
19152;DHT22;9708;53.114;9.388;2022-12-20T09:31:52;9.30;99.90
19152;DHT22;9708;53.114;9.388;2022-12-20T09:34:18;9.30;99.90
19152;DHT22;9708;53.114;9.388;2022-12-20T09:36:45;9.30;99.90
19152;DHT22;9708;53.114;9.388;2022-12-20T09:39:13;9.30;99.90
19152;DHT22;9708;53.114;9.388;2022-12-20T09:41:41;9.40;99.90
19152;DHT22;9708;53.114;9.388;2022-12-20T09:44:14;9.40;99.90
19152;DHT22;9708;53.114;9.388;2022-12-20T09:46:43;9.50;99.90
19152;DHT22;9708;53.114;9.388;2022-12-20T09:49:15;9.70;99.90
19152;DHT22;9708;53.114;9.388;2022-12-20T09:51:53;9.80;99.90
19152;DHT22;9708;53.114;9.388;2022-12-20T09:54:32;9.80;99.90
19152;DHT22;9708;53.114;9.388;2022-12-20T09:57:05;9.80;99.90
19152;DHT22;9708;53.114;9.388;2022-12-20T09:59:40;9.90;99.90
19152;DHT22;9708;53.114;9.388;2022-12-20T10:02:10;9.70;99.90
19152;DHT22;9708;53.114;9.388;2022-12-20T10:04:37;9.60;99.90
19152;DHT22;9708;53.114;9.388;2022-12-20T10:07:16;9.60;99.90
19152;DHT22;9708;53.114;9.388;2022-12-20T10:09:55;9.50;99.90
19152;DHT22;9708;53.114;9.388;2022-12-20T10:12:32;9.60;99.90
19152;DHT22;9708;53.114;9.388;2022-12-20T10:15:17;9.60;99.90
19152;DHT22;9708;53.114;9.388;2022-12-20T10:17:53;9.50;99.90
19152;DHT22;9708;53.114;9.388;2022-12-20T10:20:37;9.50;99.90
19152;DHT22;9708;53.114;9.388;2022-12-20T10:23:10;9.40;99.90
19152;DHT22;9708;53.114;9.388;2022-12-20T10:25:39;9.40;99.90
19152;DHT22;9708;53.114;9.388;2022-12-20T10:28:11;9.40;99.90
19152;DHT22;9708;53.114;9.388;2022-12-20T10:30:40;9.40;99.90
19152;DHT22;9708;53.114;9.388;2022-12-20T10:33:13;9.40;99.90
19152;DHT22;9708;53.114;9.388;2022-12-20T10:35:42;9.40;99.90
19152;DHT22;9708;53.114;9.388;2022-12-20T10:38:11;9.50;99.90
19152;DHT22;9708;53.114;9.388;2022-12-20T10:40:41;9.40;99.90
19152;DHT22;9708;53.114;9.388;2022-12-20T10:43:15;9.40;99.90
19152;DHT22;9708;53.114;9.388;2022-12-20T10:45:43;9.50;99.90
19152;DHT22;9708;53.114;9.388;2022-12-20T10:48:26;9.50;99.90
19152;DHT22;9708;53.114;9.388;2022-12-20T10:50:59;9.50;99.90
19152;DHT22;9708;53.114;9.388;2022-12-20T10:53:27;9.50;99.90
19152;DHT22;9708;53.114;9.388;2022-12-20T10:56:17;9.50;99.90
19152;DHT22;9708;53.114;9.388;2022-12-20T10:58:52;9.60;99.90
19152;DHT22;9708;53.114;9.388;2022-12-20T11:01:28;9.60;99.90
19152;DHT22;9708;53.114;9.388;2022-12-20T11:03:58;9.60;99.90
19152;DHT22;9708;53.114;9.388;2022-12-20T11:06:28;9.70;99.90
19152;DHT22;9708;53.114;9.388;2022-12-20T11:09:21;9.60;99.90
19152;DHT22;9708;53.114;9.388;2022-12-20T11:12:05;9.60;99.90
19152;DHT22;9708;53.114;9.388;2022-12-20T11:14:34;9.60;99.90
19152;DHT22;9708;53.114;9.388;2022-12-20T11:17:04;9.70;99.90
19152;DHT22;9708;53.114;9.388;2022-12-20T11:19:45;9.70;99.90
19152;DHT22;9708;53.114;9.388;2022-12-20T11:22:24;9.70;99.90
19152;DHT22;9708;53.114;9.388;2022-12-20T11:25:05;9.70;99.90
19152;DHT22;9708;53.114;9.388;2022-12-20T11:27:41;9.70;99.90
19152;DHT22;9708;53.114;9.388;2022-12-20T11:30:16;9.70;99.90
19152;DHT22;9708;53.114;9.388;2022-12-20T11:33:05;9.70;99.90
19152;DHT22;9708;53.114;9.388;2022-12-20T11:35:44;9.80;99.90
19152;DHT22;9708;53.114;9.388;2022-12-20T11:38:21;9.70;99.90
19152;DHT22;9708;53.114;9.388;2022-12-20T11:40:54;9.70;99.90
19152;DHT22;9708;53.114;9.388;2022-12-20T11:43:41;9.70;99.90
19152;DHT22;9708;53.114;9.388;2022-12-20T11:46:22;9.80;99.90
19152;DHT22;9708;53.114;9.388;2022-12-20T11:48:59;9.80;99.90
19152;DHT22;9708;53.114;9.388;2022-12-20T11:51:39;9.80;99.90
19152;DHT22;9708;53.114;9.388;2022-12-20T11:54:11;9.90;99.90
19152;DHT22;9708;53.114;9.388;2022-12-20T11:56:41;9.90;99.90
19152;DHT22;9708;53.114;9.388;2022-12-20T11:59:15;9.90;99.90
19152;DHT22;9708;53.114;9.388;2022-12-20T12:01:47;10.00;99.90
19152;DHT22;9708;53.114;9.388;2022-12-20T12:04:18;10.00;99.90
19152;DHT22;9708;53.114;9.388;2022-12-20T12:06:51;9.90;99.90
19152;DHT22;9708;53.114;9.388;2022-12-20T12:09:24;10.00;99.90
19152;DHT22;9708;53.114;9.388;2022-12-20T12:11:59;9.90;99.90
19152;DHT22;9708;53.114;9.388;2022-12-20T12:14:36;10.00;99.90
19152;DHT22;9708;53.114;9.388;2022-12-20T12:17:08;9.90;99.90
19152;DHT22;9708;53.114;9.388;2022-12-20T12:19:41;9.90;99.90
19152;DHT22;9708;53.114;9.388;2022-12-20T12:22:12;9.90;99.90
19152;DHT22;9708;53.114;9.388;2022-12-20T12:24:43;10.00;99.90
19152;DHT22;9708;53.114;9.388;2022-12-20T12:27:21;9.90;99.90
19152;DHT22;9708;53.114;9.388;2022-12-20T12:29:50;10.20;99.90
19152;DHT22;9708;53.114;9.388;2022-12-20T12:32:23;10.00;99.90
19152;DHT22;9708;53.114;9.388;2022-12-20T12:35:02;9.90;99.90
19152;DHT22;9708;53.114;9.388;2022-12-20T12:37:54;9.90;99.90
19152;DHT22;9708;53.114;9.388;2022-12-20T12:40:47;9.90;99.90
19152;DHT22;9708;53.114;9.388;2022-12-20T12:43:39;9.90;99.90
19152;DHT22;9708;53.114;9.388;2022-12-20T12:46:11;9.90;99.90
19152;DHT22;9708;53.114;9.388;2022-12-20T12:48:41;9.80;99.90
19152;DHT22;9708;53.114;9.388;2022-12-20T12:51:10;9.80;99.90
19152;DHT22;9708;53.114;9.388;2022-12-20T12:53:42;9.80;99.90
19152;DHT22;9708;53.114;9.388;2022-12-20T12:56:34;9.70;99.90
19152;DHT22;9708;53.114;9.388;2022-12-20T13:02:33;9.80;99.90
19152;DHT22;9708;53.114;9.388;2022-12-20T13:05:31;9.80;99.90
19152;DHT22;9708;53.114;9.388;2022-12-20T13:07:58;9.80;99.90
19152;DHT22;9708;53.114;9.388;2022-12-20T13:10:59;9.70;99.90
19152;DHT22;9708;53.114;9.388;2022-12-20T13:13:26;9.70;99.90
19152;DHT22;9708;53.114;9.388;2022-12-20T13:16:09;9.80;99.90
19152;DHT22;9708;53.114;9.388;2022-12-20T13:21:43;9.70;99.90
19152;DHT22;9708;53.114;9.388;2022-12-20T13:24:39;9.70;99.90
19152;DHT22;9708;53.114;9.388;2022-12-20T13:27:26;9.70;99.90
19152;DHT22;9708;53.114;9.388;2022-12-20T13:33:02;9.70;99.90
19152;DHT22;9708;53.114;9.388;2022-12-20T13:35:41;9.70;99.90
19152;DHT22;9708;53.114;9.388;2022-12-20T13:38:40;9.70;99.90
19152;DHT22;9708;53.114;9.388;2022-12-20T13:41:26;9.70;99.90
19152;DHT22;9708;53.114;9.388;2022-12-20T13:43:56;9.60;99.90
19152;DHT22;9708;53.114;9.388;2022-12-20T13:46:26;9.60;99.90
19152;DHT22;9708;53.114;9.388;2022-12-20T13:48:59;9.60;99.90
19152;DHT22;9708;53.114;9.388;2022-12-20T13:51:30;9.60;99.90
19152;DHT22;9708;53.114;9.388;2022-12-20T13:53:59;9.50;99.90
19152;DHT22;9708;53.114;9.388;2022-12-20T13:56:34;9.50;99.90
19152;DHT22;9708;53.114;9.388;2022-12-20T13:59:05;9.50;99.90
19152;DHT22;9708;53.114;9.388;2022-12-20T14:01:33;9.40;99.90
19152;DHT22;9708;53.114;9.388;2022-12-20T14:04:03;9.40;99.90
19152;DHT22;9708;53.114;9.388;2022-12-20T14:06:33;9.50;99.90
19152;DHT22;9708;53.114;9.388;2022-12-20T14:09:00;9.40;99.90
19152;DHT22;9708;53.114;9.388;2022-12-20T14:11:30;9.40;99.90
19152;DHT22;9708;53.114;9.388;2022-12-20T14:13:58;9.40;99.90
19152;DHT22;9708;53.114;9.388;2022-12-20T14:16:27;9.50;99.90
19152;DHT22;9708;53.114;9.388;2022-12-20T14:19:00;9.40;99.90
19152;DHT22;9708;53.114;9.388;2022-12-20T14:21:28;9.40;99.90
19152;DHT22;9708;53.114;9.388;2022-12-20T14:23:57;9.40;99.90
19152;DHT22;9708;53.114;9.388;2022-12-20T14:26:27;9.40;99.90
19152;DHT22;9708;53.114;9.388;2022-12-20T14:28:56;9.40;99.90
19152;DHT22;9708;53.114;9.388;2022-12-20T14:31:24;9.40;99.90
19152;DHT22;9708;53.114;9.388;2022-12-20T14:34:01;9.40;99.90
19152;DHT22;9708;53.114;9.388;2022-12-20T14:36:28;9.40;99.90
19152;DHT22;9708;53.114;9.388;2022-12-20T14:38:57;9.40;99.90
19152;DHT22;9708;53.114;9.388;2022-12-20T14:41:35;9.30;99.90
19152;DHT22;9708;53.114;9.388;2022-12-20T14:44:12;9.40;99.90
19152;DHT22;9708;53.114;9.388;2022-12-20T14:46:46;9.40;99.90
19152;DHT22;9708;53.114;9.388;2022-12-20T14:49:20;9.40;99.90
19152;DHT22;9708;53.114;9.388;2022-12-20T14:51:48;9.40;99.90
19152;DHT22;9708;53.114;9.388;2022-12-20T14:54:19;9.40;99.90
19152;DHT22;9708;53.114;9.388;2022-12-20T14:56:47;9.30;99.90
19152;DHT22;9708;53.114;9.388;2022-12-20T14:59:16;9.30;99.90
19152;DHT22;9708;53.114;9.388;2022-12-20T15:01:43;9.40;99.90
19152;DHT22;9708;53.114;9.388;2022-12-20T15:04:22;9.40;99.90
19152;DHT22;9708;53.114;9.388;2022-12-20T15:06:49;9.40;99.90
19152;DHT22;9708;53.114;9.388;2022-12-20T15:09:18;9.40;99.90
19152;DHT22;9708;53.114;9.388;2022-12-20T15:11:45;9.50;99.90
19152;DHT22;9708;53.114;9.388;2022-12-20T15:14:23;9.40;99.90
19152;DHT22;9708;53.114;9.388;2022-12-20T15:16:51;9.50;99.90
19152;DHT22;9708;53.114;9.388;2022-12-20T15:19:18;9.50;99.90
19152;DHT22;9708;53.114;9.388;2022-12-20T15:21:46;9.50;99.90
19152;DHT22;9708;53.114;9.388;2022-12-20T15:24:14;9.60;99.90
19152;DHT22;9708;53.114;9.388;2022-12-20T15:26:42;9.50;99.90
19152;DHT22;9708;53.114;9.388;2022-12-20T15:29:14;9.60;99.90
19152;DHT22;9708;53.114;9.388;2022-12-20T15:31:42;9.60;99.90
19152;DHT22;9708;53.114;9.388;2022-12-20T15:34:13;9.60;99.90
19152;DHT22;9708;53.114;9.388;2022-12-20T15:36:40;9.50;99.90
19152;DHT22;9708;53.114;9.388;2022-12-20T15:39:09;9.50;99.90
19152;DHT22;9708;53.114;9.388;2022-12-20T15:41:39;9.50;99.90
19152;DHT22;9708;53.114;9.388;2022-12-20T15:44:12;9.50;99.90
19152;DHT22;9708;53.114;9.388;2022-12-20T15:46:40;9.60;99.90
19152;DHT22;9708;53.114;9.388;2022-12-20T15:49:11;9.70;99.90
19152;DHT22;9708;53.114;9.388;2022-12-20T15:51:39;9.70;99.90
19152;DHT22;9708;53.114;9.388;2022-12-20T15:54:19;9.60;99.90
19152;DHT22;9708;53.114;9.388;2022-12-20T15:56:47;9.60;99.90
19152;DHT22;9708;53.114;9.388;2022-12-20T15:59:15;9.60;99.90
19152;DHT22;9708;53.114;9.388;2022-12-20T16:01:42;9.60;99.90
19152;DHT22;9708;53.114;9.388;2022-12-20T16:04:13;9.60;99.90
19152;DHT22;9708;53.114;9.388;2022-12-20T16:06:40;9.60;99.90
19152;DHT22;9708;53.114;9.388;2022-12-20T16:09:08;9.70;99.90
19152;DHT22;9708;53.114;9.388;2022-12-20T16:11:35;9.70;99.90
19152;DHT22;9708;53.114;9.388;2022-12-20T16:14:01;9.70;99.90
19152;DHT22;9708;53.114;9.388;2022-12-20T16:16:30;9.70;99.90
19152;DHT22;9708;53.114;9.388;2022-12-20T16:18:58;9.60;99.90
19152;DHT22;9708;53.114;9.388;2022-12-20T16:21:28;9.60;99.90
19152;DHT22;9708;53.114;9.388;2022-12-20T16:23:56;9.60;99.90
19152;DHT22;9708;53.114;9.388;2022-12-20T16:26:24;9.60;99.90
19152;DHT22;9708;53.114;9.388;2022-12-20T16:28:52;9.60;99.90
19152;DHT22;9708;53.114;9.388;2022-12-20T16:31:23;9.60;99.90
19152;DHT22;9708;53.114;9.388;2022-12-20T16:33:52;9.60;99.90
19152;DHT22;9708;53.114;9.388;2022-12-20T16:36:19;9.60;99.90
19152;DHT22;9708;53.114;9.388;2022-12-20T16:38:46;9.60;99.90
19152;DHT22;9708;53.114;9.388;2022-12-20T16:41:15;9.70;99.90
19152;DHT22;9708;53.114;9.388;2022-12-20T16:43:43;9.60;99.90
19152;DHT22;9708;53.114;9.388;2022-12-20T16:46:11;9.60;99.90
19152;DHT22;9708;53.114;9.388;2022-12-20T16:48:38;9.70;99.90
19152;DHT22;9708;53.114;9.388;2022-12-20T16:51:21;9.60;99.90
19152;DHT22;9708;53.114;9.388;2022-12-20T16:53:49;9.60;99.90
19152;DHT22;9708;53.114;9.388;2022-12-20T16:56:17;9.50;99.90
19152;DHT22;9708;53.114;9.388;2022-12-20T16:58:44;9.60;99.90
19152;DHT22;9708;53.114;9.388;2022-12-20T17:01:14;9.50;99.90
19152;DHT22;9708;53.114;9.388;2022-12-20T17:03:42;9.50;99.90
19152;DHT22;9708;53.114;9.388;2022-12-20T17:06:09;9.50;99.90
19152;DHT22;9708;53.114;9.388;2022-12-20T17:08:38;9.50;99.90
19152;DHT22;9708;53.114;9.388;2022-12-20T17:11:12;9.50;99.90
19152;DHT22;9708;53.114;9.388;2022-12-20T17:13:39;9.60;99.90
19152;DHT22;9708;53.114;9.388;2022-12-20T17:16:08;9.50;99.90
19152;DHT22;9708;53.114;9.388;2022-12-20T17:18:35;9.60;99.90
19152;DHT22;9708;53.114;9.388;2022-12-20T17:21:10;9.60;99.90
19152;DHT22;9708;53.114;9.388;2022-12-20T17:23:40;9.60;99.90
19152;DHT22;9708;53.114;9.388;2022-12-20T17:26:08;9.60;99.90
19152;DHT22;9708;53.114;9.388;2022-12-20T17:28:37;9.50;99.90
19152;DHT22;9708;53.114;9.388;2022-12-20T17:31:09;9.50;99.90
19152;DHT22;9708;53.114;9.388;2022-12-20T17:33:39;9.60;99.90
19152;DHT22;9708;53.114;9.388;2022-12-20T17:36:06;9.50;99.90
19152;DHT22;9708;53.114;9.388;2022-12-20T17:38:33;9.50;99.90
19152;DHT22;9708;53.114;9.388;2022-12-20T17:41:01;9.50;99.90
19152;DHT22;9708;53.114;9.388;2022-12-20T17:43:28;9.50;99.90
19152;DHT22;9708;53.114;9.388;2022-12-20T17:45:55;9.50;99.90
19152;DHT22;9708;53.114;9.388;2022-12-20T17:48:22;9.50;99.90
19152;DHT22;9708;53.114;9.388;2022-12-20T17:50:48;9.40;99.90
19152;DHT22;9708;53.114;9.388;2022-12-20T17:53:15;9.40;99.90
19152;DHT22;9708;53.114;9.388;2022-12-20T17:55:42;9.40;99.90
19152;DHT22;9708;53.114;9.388;2022-12-20T17:58:10;9.40;99.90
19152;DHT22;9708;53.114;9.388;2022-12-20T18:00:37;9.40;99.90
19152;DHT22;9708;53.114;9.388;2022-12-20T18:03:03;9.40;99.90
19152;DHT22;9708;53.114;9.388;2022-12-20T18:05:30;9.30;99.90
19152;DHT22;9708;53.114;9.388;2022-12-20T18:07:57;9.40;99.90
19152;DHT22;9708;53.114;9.388;2022-12-20T18:10:23;9.30;99.90
19152;DHT22;9708;53.114;9.388;2022-12-20T18:12:50;9.30;99.90
19152;DHT22;9708;53.114;9.388;2022-12-20T18:15:18;9.40;99.90
19152;DHT22;9708;53.114;9.388;2022-12-20T18:17:46;9.30;99.90
19152;DHT22;9708;53.114;9.388;2022-12-20T18:20:13;9.40;99.90
19152;DHT22;9708;53.114;9.388;2022-12-20T18:22:40;9.30;99.90
19152;DHT22;9708;53.114;9.388;2022-12-20T18:25:07;9.40;99.90
19152;DHT22;9708;53.114;9.388;2022-12-20T18:27:39;9.30;99.90
19152;DHT22;9708;53.114;9.388;2022-12-20T18:30:09;9.40;99.90
19152;DHT22;9708;53.114;9.388;2022-12-20T18:32:37;9.40;99.90
19152;DHT22;9708;53.114;9.388;2022-12-20T18:35:05;9.40;99.90
19152;DHT22;9708;53.114;9.388;2022-12-20T18:37:32;9.40;99.90
19152;DHT22;9708;53.114;9.388;2022-12-20T18:39:59;9.30;99.90
19152;DHT22;9708;53.114;9.388;2022-12-20T18:42:25;9.30;99.90
19152;DHT22;9708;53.114;9.388;2022-12-20T18:44:52;9.30;99.90
19152;DHT22;9708;53.114;9.388;2022-12-20T18:47:19;9.40;99.90
19152;DHT22;9708;53.114;9.388;2022-12-20T18:49:47;9.30;99.90
19152;DHT22;9708;53.114;9.388;2022-12-20T18:52:14;9.30;99.90
19152;DHT22;9708;53.114;9.388;2022-12-20T18:54:41;9.30;99.90
19152;DHT22;9708;53.114;9.388;2022-12-20T18:57:07;9.30;99.90
19152;DHT22;9708;53.114;9.388;2022-12-20T18:59:34;9.30;99.90
19152;DHT22;9708;53.114;9.388;2022-12-20T19:02:01;9.20;99.90
19152;DHT22;9708;53.114;9.388;2022-12-20T19:04:28;9.30;99.90
19152;DHT22;9708;53.114;9.388;2022-12-20T19:06:56;9.30;99.90
19152;DHT22;9708;53.114;9.388;2022-12-20T19:09:23;9.30;99.90
19152;DHT22;9708;53.114;9.388;2022-12-20T19:11:50;9.30;99.90
19152;DHT22;9708;53.114;9.388;2022-12-20T19:14:16;9.30;99.90
19152;DHT22;9708;53.114;9.388;2022-12-20T19:16:43;9.40;99.90
19152;DHT22;9708;53.114;9.388;2022-12-20T19:19:10;9.40;99.90
19152;DHT22;9708;53.114;9.388;2022-12-20T19:21:41;9.30;99.90
19152;DHT22;9708;53.114;9.388;2022-12-20T19:24:10;9.30;99.90
19152;DHT22;9708;53.114;9.388;2022-12-20T19:26:38;9.30;99.90
19152;DHT22;9708;53.114;9.388;2022-12-20T19:29:06;9.30;99.90
19152;DHT22;9708;53.114;9.388;2022-12-20T19:31:35;9.30;99.90
19152;DHT22;9708;53.114;9.388;2022-12-20T19:34:04;9.30;99.90
19152;DHT22;9708;53.114;9.388;2022-12-20T19:36:35;9.30;99.90
19152;DHT22;9708;53.114;9.388;2022-12-20T19:39:03;9.30;99.90
19152;DHT22;9708;53.114;9.388;2022-12-20T19:41:33;9.40;99.90
19152;DHT22;9708;53.114;9.388;2022-12-20T19:44:00;9.30;99.90
19152;DHT22;9708;53.114;9.388;2022-12-20T19:46:27;9.40;99.90
19152;DHT22;9708;53.114;9.388;2022-12-20T19:48:54;9.30;99.90
19152;DHT22;9708;53.114;9.388;2022-12-20T19:51:21;9.30;99.90
19152;DHT22;9708;53.114;9.388;2022-12-20T19:53:49;9.40;99.90
19152;DHT22;9708;53.114;9.388;2022-12-20T19:56:19;9.40;99.90
19152;DHT22;9708;53.114;9.388;2022-12-20T19:58:48;9.40;99.90
19152;DHT22;9708;53.114;9.388;2022-12-20T20:01:16;9.40;99.90
19152;DHT22;9708;53.114;9.388;2022-12-20T20:03:43;9.40;99.90
19152;DHT22;9708;53.114;9.388;2022-12-20T20:06:10;9.40;99.90
19152;DHT22;9708;53.114;9.388;2022-12-20T20:08:37;9.40;99.90
19152;DHT22;9708;53.114;9.388;2022-12-20T20:11:04;9.50;99.90